Time;durP1;ratioP1;P1;durP2;ratioP2;P2;SDS_P1;SDS_P2;PMS_P1;PMS_P2;Temp;Humidity;BMP_temperature;BMP_pressure;BME280_temperature;BME280_humidity;BME280_pressure;Samples;Min_cycle;Max_cycle;Signal;HPM_P1;HPM_P2
2022/03/05 00:14:29;;;;;;;15.57;10.98;;;;;;;2.09;63.37;98289.56;12802096;23;20021;-77
2022/03/05 00:28:57;;;;;;;14.68;9.63;;;;;;;2.01;63.70;98305.94;12802223;23;20017;-77
2022/03/05 00:34:47;;;;;;;12.63;9.43;;;;;;;2.02;63.37;98295.66;12756060;23;20025;-77
2022/03/05 01:47:00;;;;;;;17.38;10.82;;;;;;;2.07;63.46;98291.34;12793783;22;20834;-78
2022/03/05 01:52:22;;;;;;;14.00;10.05;;;;;;;2.05;63.50;98296.66;12740518;23;20055;-78
2022/03/05 02:15:27;;;;;;;16.85;10.15;;;;;;;2.07;63.72;98280.34;12800356;23;20021;-77
2022/03/05 02:38:14;;;;;;;13.73;8.95;;;;;;;2.05;64.15;98282.88;12822035;23;20021;-78
2022/03/05 02:45:18;;;;;;;14.25;9.85;;;;;;;1.98;64.63;98275.97;12769363;23;20100;-77
2022/03/05 03:00:52;;;;;;;15.88;10.27;;;;;;;2.07;64.73;98264.56;12803577;23;20025;-78
2022/03/05 03:14:38;;;;;;;19.35;10.18;;;;;;;1.94;64.61;98262.50;12803730;23;20021;-78
2022/03/05 03:21:03;;;;;;;19.17;11.05;;;;;;;1.96;64.67;98257.22;12787215;23;20025;-78
2022/03/05 03:52:13;;;;;;;20.08;11.32;;;;;;;1.91;64.65;98260.03;12784315;23;20032;-78
2022/03/05 03:57:40;;;;;;;14.95;9.60;;;;;;;1.86;64.91;98269.88;12680002;23;20045;-78
2022/03/05 04:46:03;;;;;;;16.73;10.60;;;;;;;1.83;64.94;98272.91;12723586;23;20021;-78
2022/03/05 04:53:01;;;;;;;15.10;10.48;;;;;;;1.82;64.76;98274.94;12723559;23;20029;-78
2022/03/05 05:07:03;;;;;;;16.08;10.85;;;;;;;1.80;64.87;98291.22;12801363;23;20379;-78
2022/03/05 05:36:22;;;;;;;17.23;11.32;;;;;;;1.79;65.46;98309.03;12800171;23;20033;-78
2022/03/05 05:42:14;;;;;;;15.88;11.05;;;;;;;1.78;65.24;98310.28;12769448;23;20025;-78
2022/03/05 05:48:37;;;;;;;16.13;11.20;;;;;;;1.79;65.12;98305.53;12756941;23;20025;-78
2022/03/05 05:54:59;;;;;;;15.98;11.02;;;;;;;1.83;65.63;98306.69;12765822;23;20029;-78
2022/03/05 06:00:59;;;;;;;15.73;11.57;;;;;;;1.88;65.23;98305.88;12786100;23;20029;-77
2022/03/05 06:06:50;;;;;;;18.65;11.60;;;;;;;1.91;65.21;98313.09;12771832;23;20025;-78
2022/03/05 06:20:51;;;;;;;15.05;11.73;;;;;;;2.06;65.22;98317.41;12800324;23;20021;-77
2022/03/05 06:27:54;;;;;;;18.05;12.00;;;;;;;2.17;65.09;98320.00;12757354;23;20020;-78
2022/03/05 06:42:21;;;;;;;19.80;14.23;;;;;;;2.40;65.33;98326.63;12804922;23;20029;-78
2022/03/05 06:48:16;;;;;;;18.42;12.20;;;;;;;2.50;64.74;98326.97;12774462;23;20444;-78
2022/03/05 06:54:14;;;;;;;;;;;;;;;2.61;64.92;98337.84;12773931;23;20025;-78
2022/03/05 07:07:36;;;;;;;17.83;11.70;;;;;;;3.00;64.32;98345.44;12810501;23;20379;-78
2022/03/05 07:13:01;;;;;;;19.88;13.23;;;;;;;3.17;63.64;98323.03;12762915;23;20024;-78
2022/03/05 07:18:57;;;;;;;20.30;13.82;;;;;;;3.35;63.91;98340.75;12757476;23;20025;-78
2022/03/05 07:24:19;;;;;;;20.00;13.38;;;;;;;3.50;63.66;98332.69;12740769;23;20017;-78
2022/03/05 07:29:48;;;;;;;18.33;13.18;;;;;;;3.78;62.97;98336.91;12741782;23;20021;-78
2022/03/05 07:35:45;;;;;;;17.60;12.40;;;;;;;4.07;62.82;98341.28;12756602;23;20025;-78
2022/03/05 07:41:06;;;;;;;17.25;12.48;;;;;;;4.38;62.74;98338.81;12781088;23;20024;-78
2022/03/05 07:46:37;;;;;;;15.65;12.40;;;;;;;4.65;62.05;98342.94;12765177;23;20017;-78
2022/03/05 07:52:08;;;;;;;15.60;12.07;;;;;;;4.92;62.07;98360.09;12804273;23;20013;-78
2022/03/05 07:57:35;;;;;;;15.10;11.68;;;;;;;5.10;61.51;98342.50;12745658;23;20025;-79
2022/03/05 08:02:57;;;;;;;16.85;11.90;;;;;;;5.38;61.14;98360.41;12779567;23;20020;-79
2022/03/05 08:08:48;;;;;;;15.77;11.82;;;;;;;5.79;60.16;98356.00;12772139;23;20025;-79
2022/03/05 08:14:19;;;;;;;16.05;11.25;;;;;;;6.22;58.96;98350.44;12800646;23;20016;-79
2022/03/05 08:20:42;;;;;;;14.32;10.90;;;;;;;6.79;57.26;98355.69;12756897;23;20025;-78
2022/03/05 08:26:36;;;;;;;16.02;11.40;;;;;;;7.02;58.33;98366.78;12786070;23;20411;-79
2022/03/05 08:40:04;;;;;;;14.95;11.05;;;;;;;7.70;57.32;98357.59;12803202;23;20025;-79
2022/03/05 08:45:53;;;;;;;15.15;11.07;;;;;;;7.97;56.17;98354.34;12771544;23;20056;-79
2022/03/05 08:51:44;;;;;;;14.32;10.98;;;;;;;7.88;56.28;98372.34;12773173;23;20025;-79
2022/03/05 08:57:33;;;;;;;17.38;11.82;;;;;;;7.90;56.33;98374.56;12766258;23;20056;-79
2022/03/05 09:03:23;;;;;;;18.80;13.25;;;;;;;8.12;55.60;98367.44;12786648;23;20029;-78
2022/03/05 09:09:12;;;;;;;15.73;11.82;;;;;;;8.31;55.53;98367.72;12773255;23;20025;-79
2022/03/05 09:15:01;;;;;;;18.13;13.02;;;;;;;8.29;52.71;98370.28;12785647;23;20460;-78
2022/03/05 09:21:01;;;;;;;14.88;12.30;;;;;;;8.51;51.80;98361.13;12761481;23;20071;-78
2022/03/05 09:27:22;;;;;;;17.00;12.48;;;;;;;9.12;51.72;98368.25;12786524;23;20028;-79
2022/03/05 09:33:44;;;;;;;15.70;11.95;;;;;;;9.21;49.61;98362.06;12771222;23;20021;-79
2022/03/05 09:39:05;;;;;;;16.08;11.85;;;;;;;9.77;51.17;98359.63;12835362;23;20097;-81
2022/03/05 09:44:26;;;;;;;13.75;11.10;;;;;;;10.34;50.64;98377.38;12799022;23;20017;-80
2022/03/05 09:49:47;;;;;;;13.77;10.82;;;;;;;10.80;49.06;98380.22;12790179;23;20020;-83
2022/03/05 09:55:09;;;;;;;14.52;11.23;;;;;;;11.23;48.97;98377.88;12782652;23;20013;-76
2022/03/05 10:00:30;;;;;;;13.60;10.98;;;;;;;11.86;47.87;98368.53;12765284;23;20041;-75
2022/03/05 10:05:52;;;;;;;12.80;10.38;;;;;;;12.19;45.75;98375.13;12720700;23;20474;-76
2022/03/05 10:11:13;;;;;;;13.38;10.48;;;;;;;11.92;45.12;98375.28;12785241;23;20021;-76
2022/03/05 10:16:34;;;;;;;19.33;13.70;;;;;;;11.65;45.20;98389.38;12785138;23;20063;-77
2022/03/05 10:21:59;;;;;;;12.52;10.20;;;;;;;12.96;44.91;98379.75;12744452;23;20348;-77
2022/03/05 10:27:20;;;;;;;11.32;9.13;;;;;;;12.56;42.77;98372.84;12806645;23;20012;-78
2022/03/05 10:32:41;;;;;;;13.55;10.23;;;;;;;12.26;42.68;98368.63;12763947;23;20020;-75
2022/03/05 10:38:02;;;;;;;13.93;9.63;;;;;;;12.32;40.66;98362.72;12765020;23;20024;-78
2022/03/05 10:43:23;;;;;;;11.93;9.07;;;;;;;12.67;40.85;98367.94;12743734;23;20021;-76
2022/03/05 10:48:47;;;;;;;10.80;7.60;;;;;;;13.81;39.42;98351.06;12762837;23;20092;-76
2022/03/05 10:54:10;;;;;;;11.82;7.75;;;;;;;14.25;38.14;98355.22;12784044;23;20071;-75
2022/03/05 10:59:41;;;;;;;10.75;7.63;;;;;;;13.85;36.71;98354.09;12788891;23;20029;-76
2022/03/05 11:05:04;;;;;;;8.57;6.28;;;;;;;13.73;35.95;98353.31;12786645;23;20328;-77
2022/03/05 11:10:55;;;;;;;8.43;6.15;;;;;;;13.40;35.66;98354.00;12777377;23;20025;-76
2022/03/05 11:16:17;;;;;;;8.13;6.17;;;;;;;13.13;36.63;98353.56;12785692;23;20013;-76
2022/03/05 11:21:39;;;;;;;8.43;6.03;;;;;;;13.00;36.45;98340.78;12785648;23;20616;-76
2022/03/05 11:27:01;;;;;;;8.23;6.88;;;;;;;12.74;36.34;98339.00;12787142;23;20044;-76
2022/03/05 11:32:34;;;;;;;6.57;4.10;;;;;;;12.36;35.28;98329.44;12746379;23;20455;-77
2022/03/05 11:37:56;;;;;;;7.90;4.20;;;;;;;11.20;36.06;98325.94;12767822;23;20080;-76
2022/03/05 11:43:19;;;;;;;5.85;4.45;;;;;;;10.18;36.12;98318.19;12765225;23;20020;-76
2022/03/05 11:48:39;;;;;;;6.20;4.30;;;;;;;9.38;37.08;98316.75;12827138;23;20028;-76
2022/03/05 11:54:14;;;;;;;6.22;3.88;;;;;;;9.18;37.08;98318.63;12765398;23;20369;-76
2022/03/05 12:00:02;;;;;;;5.27;3.13;;;;;;;9.11;37.43;98309.03;12758596;23;20024;-76
2022/03/05 12:05:38;;;;;;;5.95;3.75;;;;;;;8.65;37.90;98308.69;12765375;23;20017;-76
2022/03/05 12:11:16;;;;;;;6.07;3.55;;;;;;;8.02;37.50;98300.56;12773619;23;20017;-76
2022/03/05 12:16:39;;;;;;;4.07;2.88;;;;;;;7.71;37.66;98289.59;12782023;23;20575;-77
2022/03/05 12:22:00;;;;;;;4.00;2.03;;;;;;;7.64;36.91;98306.31;12756017;23;20013;-79
2022/03/05 12:27:21;;;;;;;5.00;3.00;;;;;;;7.41;37.09;98300.81;12750054;23;20021;-73
2022/03/05 12:32:47;;;;;;;6.05;3.45;;;;;;;7.25;37.55;98297.38;12779700;23;20013;-75
2022/03/05 12:38:10;;;;;;;6.03;3.35;;;;;;;7.19;37.74;98285.72;12782183;23;20017;-76
2022/03/05 12:43:33;;;;;;;5.85;3.22;;;;;;;7.15;37.38;98290.91;12737515;23;20076;-75
2022/03/05 12:49:22;;;;;;;4.90;2.45;;;;;;;6.93;37.23;98289.63;12771190;23;20349;-74
2022/03/05 12:55:17;;;;;;;5.97;2.75;;;;;;;6.65;36.78;98282.25;12756370;23;20025;-75
2022/03/05 13:00:39;;;;;;;5.03;2.47;;;;;;;6.49;37.14;98284.31;12718670;23;20433;-75
2022/03/05 13:06:03;;;;;;;5.43;3.05;;;;;;;6.39;37.42;98288.94;12739165;23;20024;-78
2022/03/05 13:12:36;;;;;;;5.75;2.88;;;;;;;6.02;37.91;98280.00;12725177;23;20021;-77
2022/03/05 13:19:29;;;;;;;4.10;2.80;;;;;;;5.90;38.17;98273.31;12725548;23;20029;-76
2022/03/05 13:32:46;;;;;;;4.63;3.15;;;;;;;5.95;38.28;98277.22;12739963;23;20022;-76
2022/03/05 14:01:52;;;;;;;12.35;4.57;;;;;;;5.87;39.57;98274.38;12769022;23;20325;-77
2022/03/05 14:09:37;;;;;;;7.70;4.47;;;;;;;5.88;39.98;98278.63;12780077;23;20029;-78
2022/03/05 14:29:43;;;;;;;8.27;3.28;;;;;;;5.81;39.11;98265.53;12820894;22;20348;-81
2022/03/05 14:35:08;;;;;;;7.50;4.35;;;;;;;5.96;39.03;98262.78;12769377;23;20100;-78
2022/03/05 14:40:31;;;;;;;4.88;2.90;;;;;;;6.02;37.31;98255.06;12759085;23;20020;-80
2022/03/05 14:45:56;;;;;;;7.15;2.92;;;;;;;5.96;37.88;98257.25;12800622;23;20025;-82
2022/03/05 14:51:21;;;;;;;5.18;3.40;;;;;;;5.94;36.71;98253.56;12784089;23;20013;-77
2022/03/05 14:56:42;;;;;;;7.72;3.55;;;;;;;5.85;37.35;98246.50;12782327;23;20084;-76
2022/03/05 15:02:03;;;;;;;6.15;3.92;;;;;;;5.80;37.10;98241.88;12782174;23;20365;-76
2022/03/05 15:07:28;;;;;;;6.40;4.30;;;;;;;5.87;37.48;98243.91;12741379;23;20021;-77
2022/03/05 15:14:27;;;;;;;6.07;4.15;;;;;;;5.93;37.43;98241.75;12774853;23;20025;-77
2022/03/05 15:20:49;;;;;;;8.27;4.90;;;;;;;5.89;37.74;98246.88;12805376;23;20024;-77
2022/03/05 15:26:48;;;;;;;8.88;6.15;;;;;;;5.61;38.12;98244.97;12760413;23;20025;-77
2022/03/05 15:32:17;;;;;;;9.52;6.28;;;;;;;5.53;38.53;98244.19;12782615;23;20017;-78
2022/03/05 15:37:39;;;;;;;8.98;5.00;;;;;;;5.49;38.16;98237.53;12752460;23;20097;-80
2022/03/05 15:43:01;;;;;;;7.55;5.25;;;;;;;5.52;38.78;98237.19;12801548;23;20013;-79
2022/03/05 15:48:53;;;;;;;9.65;6.28;;;;;;;5.42;39.97;98242.50;12758225;23;20100;-77
2022/03/05 15:54:16;;;;;;;8.30;5.70;;;;;;;5.21;39.74;98230.78;12782651;23;20017;-76
2022/03/05 15:59:38;;;;;;;7.97;5.33;;;;;;;5.02;39.44;98225.53;12760249;23;20056;-78
2022/03/05 16:04:59;;;;;;;7.72;5.30;;;;;;;5.03;39.78;98223.50;12760418;23;20021;-78
2022/03/05 16:10:20;;;;;;;8.32;5.28;;;;;;;4.99;40.24;98225.88;12761858;23;20089;-78
2022/03/05 16:15:41;;;;;;;7.60;5.32;;;;;;;4.69;39.67;98231.97;12719984;23;20041;-77
2022/03/05 16:21:03;;;;;;;6.85;4.78;;;;;;;4.59;39.99;98242.78;12695844;23;20451;-77
2022/03/05 16:26:24;;;;;;;9.73;5.07;;;;;;;4.63;40.27;98232.09;12759968;23;20013;-75
2022/03/05 16:31:45;;;;;;;9.00;5.35;;;;;;;4.58;40.22;98238.53;12743184;23;20028;-81
2022/03/05 16:37:06;;;;;;;8.70;5.35;;;;;;;4.57;41.06;98237.06;12763878;23;20421;-80
2022/03/05 16:42:27;;;;;;;8.50;5.57;;;;;;;4.52;40.88;98241.44;12721187;23;20430;-79
2022/03/05 16:47:50;;;;;;;10.57;5.22;;;;;;;4.48;40.62;98246.56;12785619;23;20056;-81
2022/03/05 16:53:11;;;;;;;8.32;5.07;;;;;;;4.33;41.70;98240.91;12783296;23;20021;-78
2022/03/05 16:58:39;;;;;;;11.00;5.57;;;;;;;4.31;41.31;98243.47;12783748;23;20028;-78
2022/03/05 17:04:04;;;;;;;9.85;5.70;;;;;;;4.16;41.14;98227.53;12759476;23;20016;-77
2022/03/05 17:09:31;;;;;;;9.63;6.10;;;;;;;4.05;41.15;98229.81;12779081;23;20376;-76
2022/03/05 17:15:26;;;;;;;9.68;6.22;;;;;;;3.92;41.90;98230.59;12798950;23;20376;-76
2022/03/05 17:21:20;;;;;;;11.70;6.85;;;;;;;3.83;41.81;98240.09;12770029;23;20107;-77
2022/03/05 17:27:09;;;;;;;10.63;7.35;;;;;;;3.78;41.99;98240.25;12782760;23;20029;-77
2022/03/05 17:32:34;;;;;;;13.07;8.07;;;;;;;3.82;41.89;98243.41;12781208;23;20097;-80
2022/03/05 17:37:56;;;;;;;11.55;7.03;;;;;;;3.88;42.42;98263.34;12738743;23;20321;-78
2022/03/05 17:43:17;;;;;;;17.95;7.32;;;;;;;3.98;42.69;98264.38;12738412;23;20328;-77
2022/03/05 17:48:42;;;;;;;12.20;7.57;;;;;;;4.04;42.84;98281.56;12761006;23;20021;-77
2022/03/05 17:54:03;;;;;;;15.57;8.70;;;;;;;4.05;43.01;98276.75;12778969;23;20013;-77
2022/03/05 17:59:53;;;;;;;13.75;8.07;;;;;;;4.06;42.80;98281.78;12756151;23;20036;-77
2022/03/05 18:05:14;;;;;;;14.68;9.10;;;;;;;3.99;43.54;98280.41;12738552;23;20028;-78
2022/03/05 18:10:36;;;;;;;14.77;8.25;;;;;;;3.97;43.18;98288.50;12758945;23;20013;-77
2022/03/05 18:16:15;;;;;;;13.65;8.40;;;;;;;3.98;43.73;98289.97;12782138;23;20084;-75
2022/03/05 18:22:07;;;;;;;13.80;7.95;;;;;;;3.99;44.29;98293.47;12772251;23;20025;-75
2022/03/05 18:27:30;;;;;;;12.32;8.07;;;;;;;3.99;43.74;98290.72;12744903;23;20325;-76
2022/03/05 18:32:51;;;;;;;11.65;7.35;;;;;;;4.01;43.87;98293.69;12741920;23;20100;-78
2022/03/05 18:38:15;;;;;;;11.65;6.90;;;;;;;4.00;44.05;98283.91;12761565;23;20084;-76
2022/03/05 18:43:39;;;;;;;12.05;7.53;;;;;;;3.89;44.39;98284.91;12741931;23;20100;-78
2022/03/05 18:49:04;;;;;;;11.73;6.72;;;;;;;3.84;44.79;98296.06;12720914;23;20024;-76
2022/03/05 18:54:30;;;;;;;12.90;6.32;;;;;;;3.80;44.32;98292.91;12745454;23;20013;-76
2022/03/05 18:59:54;;;;;;;13.65;7.18;;;;;;;3.73;45.04;98303.31;12760732;23;20044;-77
2022/03/05 19:05:25;;;;;;;14.45;8.80;;;;;;;3.70;45.79;98309.94;12742677;23;20416;-77
2022/03/05 19:11:21;;;;;;;14.05;7.43;;;;;;;3.65;45.05;98308.00;12757744;23;20021;-75
2022/03/05 19:17:18;;;;;;;12.73;7.75;;;;;;;3.60;45.68;98308.88;12774100;23;20033;-74
2022/03/05 19:23:10;;;;;;;10.55;6.05;;;;;;;3.53;45.19;98312.28;12759927;23;20438;-76
2022/03/05 19:29:11;;;;;;;10.82;6.35;;;;;;;3.52;46.16;98321.84;12726144;23;20025;-77
2022/03/05 19:34:59;;;;;;;12.63;6.32;;;;;;;3.49;46.05;98325.69;12786497;23;20426;-76
2022/03/05 19:40:31;;;;;;;10.88;5.60;;;;;;;3.41;45.82;98331.09;12760316;23;20024;-77
2022/03/05 19:45:56;;;;;;;6.22;4.30;;;;;;;3.44;46.09;98343.09;12740183;23;20059;-77
2022/03/05 19:51:17;;;;;;;8.85;4.47;;;;;;;3.40;46.19;98337.16;12760327;23;20013;-74
2022/03/05 19:57:15;;;;;;;9.07;5.15;;;;;;;3.30;45.70;98345.13;12757990;23;20025;-74
2022/03/05 20:03:05;;;;;;;10.50;6.07;;;;;;;2.95;45.70;98360.06;12772965;23;20033;-74
2022/03/05 20:09:06;;;;;;;12.70;6.30;;;;;;;2.84;45.97;98368.53;12745718;23;20021;-75
2022/03/05 20:14:55;;;;;;;10.90;5.50;;;;;;;2.67;45.20;98368.06;12773234;23;20025;-75
2022/03/05 20:20:46;;;;;;;10.90;5.10;;;;;;;2.50;44.93;98363.53;12756756;23;20100;-74
2022/03/05 20:27:10;;;;;;;8.90;4.53;;;;;;;2.37;44.60;98374.53;12761296;23;20013;-75
2022/03/05 20:33:33;;;;;;;9.13;3.53;;;;;;;2.25;43.58;98367.69;12725422;23;20025;-75
2022/03/05 20:39:24;;;;;;;5.18;3.05;;;;;;;2.21;43.54;98367.25;12710435;23;20033;-76
2022/03/05 20:45:23;;;;;;;7.97;4.20;;;;;;;2.03;43.51;98379.78;12710851;23;20029;-75
2022/03/05 20:51:22;;;;;;;7.93;4.28;;;;;;;1.89;43.36;98369.94;12695444;23;20026;-75
2022/03/05 20:57:22;;;;;;;7.75;4.68;;;;;;;1.87;43.39;98373.22;12697743;23;20029;-75
2022/03/05 21:03:19;;;;;;;7.22;4.00;;;;;;;1.83;43.25;98372.75;12696629;23;20025;-75
2022/03/05 21:09:13;;;;;;;8.32;4.07;;;;;;;1.91;43.90;98361.91;12682647;23;20025;-73
2022/03/05 21:37:57;;;;;;;7.82;4.13;;;;;;;1.97;42.28;98360.56;12717772;23;20021;-75
2022/03/05 22:16:42;;;;;;;8.77;4.93;;;;;;;2.01;44.08;98344.50;12740500;23;20024;-77
2022/03/05 22:22:08;;;;;;;8.90;5.22;;;;;;;1.95;43.95;98343.84;12698034;23;20037;-77
2022/03/05 22:27:29;;;;;;;9.05;5.78;;;;;;;1.81;43.71;98336.00;12697480;23;20024;-77
2022/03/05 22:32:50;;;;;;;13.13;5.53;;;;;;;1.70;44.20;98334.16;12727297;23;20032;-77
2022/03/05 22:38:11;;;;;;;11.38;5.60;;;;;;;1.59;44.32;98320.56;12758913;23;20084;-78
2022/03/05 22:43:32;;;;;;;10.35;5.80;;;;;;;1.56;44.81;98321.59;12757443;23;20098;-77
2022/03/05 22:48:52;;;;;;;13.70;5.65;;;;;;;1.46;45.30;98320.47;12778455;23;20021;-77
2022/03/05 22:54:13;;;;;;;10.93;6.13;;;;;;;1.42;45.43;98320.75;12758052;23;20017;-77
2022/03/05 22:59:34;;;;;;;9.98;6.07;;;;;;;1.39;45.83;98314.28;12739025;23;20041;-77
2022/03/05 23:04:54;;;;;;;13.15;6.50;;;;;;;1.34;45.53;98322.59;12774473;22;20036;-79
2022/03/05 23:10:15;;;;;;;11.10;6.20;;;;;;;1.22;45.40;98310.97;12780596;23;20017;-79
2022/03/05 23:15:40;;;;;;;11.20;6.10;;;;;;;1.19;45.96;98323.03;12761454;23;20021;-79
2022/03/05 23:21:04;;;;;;;12.45;7.15;;;;;;;1.14;45.58;98315.56;12760561;23;20013;-79
2022/03/05 23:26:25;;;;;;;9.10;6.43;;;;;;;1.02;46.00;98319.72;12761636;23;20040;-79
2022/03/05 23:31:46;;;;;;;15.52;9.93;;;;;;;0.94;46.04;98324.28;12761076;23;20032;-79
2022/03/05 23:37:07;;;;;;;10.70;6.60;;;;;;;0.93;45.69;98320.06;12762284;23;20017;-79
2022/03/05 23:42:28;;;;;;;11.60;7.30;;;;;;;0.81;46.70;98317.44;12780946;23;20020;-79
2022/03/05 23:47:53;;;;;;;12.45;6.32;;;;;;;0.79;46.14;98313.72;12782304;23;20021;-79
2022/03/05 23:53:15;;;;;;;12.55;7.10;;;;;;;0.74;46.35;98318.00;12760247;23;20021;-79
2022/03/05 23:58:36;;;;;;;12.38;7.28;;;;;;;0.68;46.17;98328.31;12739788;23;20021;-79
